Time;durP1;ratioP1;P1;durP2;ratioP2;P2;SDS_P1;SDS_P2;PMS_P1;PMS_P2;Temp;Humidity;BMP_temperature;BMP_pressure;BME280_temperature;BME280_humidity;BME280_pressure;Samples;Min_cycle;Max_cycle;Signal;HPM_P1;HPM_P2
2023/06/08 00:02:15;;;;;;;;;;;;;;;18.81;53.13;99640.34;5132661;28;19911;-78
2023/06/08 00:04:41;;;;;;;;;;;;;;;18.78;54.22;99631.97;5132753;28;19911;-78
2023/06/08 00:07:14;;;;;;;;;;;;;;;18.84;53.58;99631.06;5132601;28;19964;-78
2023/06/08 00:09:40;;;;;;;;;;;;;;;18.87;53.48;99623.38;5132545;28;19911;-79
2023/06/08 00:12:06;;;;;;;;;;;;;;;18.95;54.31;99617.69;5132477;28;19919;-79
2023/06/08 00:14:31;;;;;;;;;;;;;;;18.97;53.18;99622.81;5135213;27;19923;-78
2023/06/08 00:16:57;;;;;;;;;;;;;;;18.90;54.14;99622.94;5136784;27;19915;-78
2023/06/08 00:19:23;;;;;;;;;;;;;;;18.85;54.25;99622.81;5136699;27;19915;-78
2023/06/08 00:21:49;;;;;;;;;;;;;;;18.79;54.07;99617.56;5135244;27;19918;-77
2023/06/08 00:24:19;;;;;;;;;;;;;;;18.73;54.21;99620.09;5135138;27;19911;-78
2023/06/08 00:26:44;;;;;;;;;;;;;;;18.71;53.92;99616.03;5136254;27;19911;-78
2023/06/08 00:29:09;;;;;;;;;;;;;;;18.67;54.31;99613.00;5134798;27;19995;-78
2023/06/08 00:31:36;;;;;;;;;;;;;;;18.71;53.46;99613.34;5136164;27;19916;-78
2023/06/08 00:34:01;;;;;;;;;;;;;;;18.70;53.07;99617.06;5134683;27;20403;-79
2023/06/08 00:36:26;;;;;;;;;;;;;;;18.75;53.74;99606.50;5136183;27;20141;-78
2023/06/08 00:38:51;;;;;;;;;;;;;;;18.78;53.50;99606.03;5136212;27;19998;-78
2023/06/08 00:41:17;;;;;;;;;;;;;;;18.72;54.49;99605.09;5134799;27;19908;-78
2023/06/08 00:43:45;;;;;;;;;;;;;;;18.72;54.70;99599.75;5134842;27;19912;-79
2023/06/08 00:46:12;;;;;;;;;;;;;;;18.70;53.24;99607.19;5134795;27;19911;-79
2023/06/08 00:48:38;;;;;;;;;;;;;;;18.69;52.75;99602.06;5136197;27;19922;-79
2023/06/08 00:51:03;;;;;;;;;;;;;;;18.59;53.67;99599.13;5136059;27;19911;-75
2023/06/08 00:53:30;;;;;;;;;;;;;;;18.45;54.53;99606.47;5134608;27;20273;-78
2023/06/08 00:55:55;;;;;;;;;;;;;;;18.41;53.45;99602.63;5135815;27;20010;-79
2023/06/08 00:58:21;;;;;;;;;;;;;;;18.36;54.61;99605.16;5135706;27;19959;-79
2023/06/08 01:00:46;;;;;;;;;;;;;;;18.25;53.36;99605.94;5134452;27;19918;-78
2023/06/08 01:03:14;;;;;;;;;;;;;;;18.03;55.69;99602.94;5135691;27;19911;-76
2023/06/08 01:05:43;;;;;;;;;;;;;;;17.93;55.13;99600.00;5134287;27;19912;-78
2023/06/08 01:08:27;;;;;;;;;;;;;;;17.93;54.63;99600.81;5135523;27;19919;-79
2023/06/08 01:10:53;;;;;;;;;;;;;;;17.94;54.38;99596.28;5135617;27;19918;-78
2023/06/08 01:13:25;;;;;;;;;;;;;;;17.86;56.19;99601.91;5135416;27;19912;-78
2023/06/08 01:15:56;;;;;;;;;;;;;;;17.84;55.37;99602.16;5135458;27;19916;-79
2023/06/08 01:18:23;;;;;;;;;;;;;;;17.86;54.94;99602.75;5135854;27;20427;-79
2023/06/08 01:21:07;;;;;;;;;;;;;;;17.82;55.40;99598.84;5135390;27;19939;-78
2023/06/08 01:23:51;;;;;;;;;;;;;;;17.76;54.73;99597.88;5134376;27;20464;-79
2023/06/08 01:26:18;;;;;;;;;;;;;;;17.78;55.30;99598.47;5134361;27;20416;-78
2023/06/08 01:28:47;;;;;;;;;;;;;;;17.78;55.21;99597.66;5133953;27;19919;-77
2023/06/08 01:31:12;;;;;;;;;;;;;;;17.78;56.06;99603.81;5135516;27;20410;-78
2023/06/08 01:33:38;;;;;;;;;;;;;;;17.85;54.72;99603.78;5135293;27;19911;-77
2023/06/08 01:36:08;;;;;;;;;;;;;;;17.86;55.86;99602.75;5135080;27;20365;-78
2023/06/08 01:38:40;;;;;;;;;;;;;;;17.85;53.95;99601.09;5135176;27;19911;-78
2023/06/08 01:41:07;;;;;;;;;;;;;;;17.74;54.11;99607.97;5135361;27;19918;-78
2023/06/08 01:43:35;;;;;;;;;;;;;;;17.71;54.38;99597.75;5134017;27;19933;-78
2023/06/08 01:46:03;;;;;;;;;;;;;;;17.69;55.30;99599.00;5144103;27;19978;-77
2023/06/08 01:48:29;;;;;;;;;;;;;;;17.71;54.77;99605.75;5152219;27;19911;-79
2023/06/08 01:50:55;;;;;;;;;;;;;;;17.67;55.25;99604.56;5134948;27;19940;-78
2023/06/08 01:53:20;;;;;;;;;;;;;;;17.67;54.41;99609.09;5133655;27;19911;-79
2023/06/08 01:55:49;;;;;;;;;;;;;;;17.65;54.74;99609.28;5133905;27;19922;-79
2023/06/08 01:58:15;;;;;;;;;;;;;;;17.63;55.42;99615.88;5134695;27;19919;-79
2023/06/08 02:00:40;;;;;;;;;;;;;;;17.61;55.09;99615.28;5134578;27;19911;-78
2023/06/08 02:03:05;;;;;;;;;;;;;;;17.66;55.28;99608.28;5134509;27;19912;-78
2023/06/08 02:05:31;;;;;;;;;;;;;;;17.56;55.82;99613.28;5134402;27;19912;-79
2023/06/08 02:07:56;;;;;;;;;;;;;;;17.55;54.50;99614.31;5134353;27;20308;-79
2023/06/08 02:10:23;;;;;;;;;;;;;;;17.55;55.64;99619.66;5134282;27;19916;-78
2023/06/08 02:12:48;;;;;;;;;;;;;;;17.61;55.54;99626.78;5134087;27;19919;-79
2023/06/08 02:15:13;;;;;;;;;;;;;;;17.51;55.75;99621.13;5134143;27;19990;-78
2023/06/08 02:17:38;;;;;;;;;;;;;;;17.54;55.34;99622.56;5134137;27;19959;-78
2023/06/08 02:20:07;;;;;;;;;;;;;;;17.64;54.59;99614.84;5134054;27;20424;-78
2023/06/08 02:22:35;;;;;;;;;;;;;;;17.64;54.98;99621.00;5133955;27;19960;-79
2023/06/08 02:25:02;;;;;;;;;;;;;;;17.57;55.08;99614.91;5134052;27;20426;-78
2023/06/08 02:27:27;;;;;;;;;;;;;;;17.59;54.67;99623.53;5133915;27;20435;-79
2023/06/08 02:29:53;;;;;;;;;;;;;;;17.55;54.79;99625.00;5133212;27;19918;-78
2023/06/08 02:32:18;;;;;;;;;;;;;;;17.56;54.67;99618.63;5134353;27;19915;-78
2023/06/08 02:34:53;;;;;;;;;;;;;;;17.57;55.10;99625.59;5133027;27;19916;-79
2023/06/08 02:37:18;;;;;;;;;;;;;;;17.56;54.60;99623.97;5131652;27;19919;-79
2023/06/08 02:39:43;;;;;;;;;;;;;;;17.48;55.18;99619.72;5132633;27;20009;-78
2023/06/08 02:42:08;;;;;;;;;;;;;;;17.45;55.61;99622.03;5133650;27;19919;-79
2023/06/08 02:44:34;;;;;;;;;;;;;;;17.41;55.64;99618.16;5133748;27;20382;-78
2023/06/08 02:46:59;;;;;;;;;;;;;;;17.39;56.20;99620.25;5132479;27;19970;-78
2023/06/08 02:49:24;;;;;;;;;;;;;;;17.40;55.61;99613.88;5133705;27;19911;-78
2023/06/08 02:51:50;;;;;;;;;;;;;;;17.39;55.55;99617.56;5134103;27;19918;-79
2023/06/08 02:54:15;;;;;;;;;;;;;;;17.39;55.73;99613.06;5132348;27;19911;-78
2023/06/08 02:56:40;;;;;;;;;;;;;;;17.36;56.18;99616.16;5133496;27;20315;-78
2023/06/08 02:59:06;;;;;;;;;;;;;;;17.33;55.23;99621.13;5133650;27;19912;-78
2023/06/08 03:01:31;;;;;;;;;;;;;;;17.28;56.98;99615.63;5133784;27;19953;-78
2023/06/08 03:03:56;;;;;;;;;;;;;;;17.20;57.06;99621.25;5133562;27;19908;-78
2023/06/08 03:06:21;;;;;;;;;;;;;;;17.23;55.50;99612.81;5133706;27;19943;-78
2023/06/08 03:08:53;;;;;;;;;;;;;;;17.27;56.23;99611.31;5133667;27;19998;-77
2023/06/08 03:11:19;;;;;;;;;;;;;;;17.38;56.36;99621.28;5133535;27;19923;-78
2023/06/08 03:13:45;;;;;;;;;;;;;;;17.47;56.55;99612.75;5132011;27;20387;-78
2023/06/08 03:16:10;;;;;;;;;;;;;;;17.54;56.41;99617.22;5133055;27;19915;-77
2023/06/08 03:18:35;;;;;;;;;;;;;;;17.59;55.80;99615.50;5132991;27;19964;-78
2023/06/08 03:21:01;;;;;;;;;;;;;;;17.64;54.84;99620.19;5131843;27;19918;-78
2023/06/08 03:23:28;;;;;;;;;;;;;;;17.64;54.77;99621.00;5133065;27;19911;-78
2023/06/08 03:25:54;;;;;;;;;;;;;;;17.63;55.81;99621.22;5131853;27;20380;-78
2023/06/08 03:28:19;;;;;;;;;;;;;;;17.64;56.12;99621.00;5132924;27;19926;-79
2023/06/08 03:30:44;;;;;;;;;;;;;;;17.67;55.75;99627.78;5133116;27;20349;-79
2023/06/08 03:33:11;;;;;;;;;;;;;;;17.67;56.66;99622.44;5132900;27;19918;-79
2023/06/08 03:35:37;;;;;;;;;;;;;;;17.66;57.27;99618.09;5132756;27;19915;-78
2023/06/08 03:38:02;;;;;;;;;;;;;;;17.65;56.52;99624.50;5132749;27;20399;-78
2023/06/08 03:40:27;;;;;;;;;;;;;;;17.77;56.29;99625.41;5132700;27;19957;-78
2023/06/08 03:42:53;;;;;;;;;;;;;;;17.86;55.86;99623.28;5131415;27;19915;-78
2023/06/08 03:45:18;;;;;;;;;;;;;;;17.95;55.99;99616.59;5131399;28;19922;-79
2023/06/08 03:48:02;;;;;;;;;;;;;;;17.98;56.05;99616.16;5131469;27;20324;-78
2023/06/08 03:50:29;;;;;;;;;;;;;;;18.04;55.45;99618.75;5132769;27;19938;-79
2023/06/08 03:52:54;;;;;;;;;;;;;;;18.01;56.50;99619.19;5132603;28;19942;-78
2023/06/08 03:55:21;;;;;;;;;;;;;;;18.09;56.35;99620.75;5132517;28;20380;-79
2023/06/08 03:57:46;;;;;;;;;;;;;;;18.12;56.57;99627.50;5132744;28;19918;-78
2023/06/08 04:00:12;;;;;;;;;;;;;;;18.16;56.82;99626.00;5131629;28;19941;-78
2023/06/08 04:02:38;;;;;;;;;;;;;;;18.28;56.99;99629.53;5132933;28;19911;-78
2023/06/08 04:05:04;;;;;;;;;;;;;;;18.34;55.96;99634.00;5131812;28;19907;-78
2023/06/08 04:07:32;;;;;;;;;;;;;;;18.38;57.28;99638.66;5133145;28;20445;-78
2023/06/08 04:09:57;;;;;;;;;;;;;;;18.47;56.41;99641.00;5133040;28;20319;-78
2023/06/08 04:12:22;;;;;;;;;;;;;;;18.38;56.12;99640.50;5131560;28;19912;-78
2023/06/08 04:14:48;;;;;;;;;;;;;;;18.34;57.49;99640.16;5133009;28;19950;-78
2023/06/08 04:17:13;;;;;;;;;;;;;;;18.44;56.96;99642.28;5132554;28;19912;-77
2023/06/08 04:19:38;;;;;;;;;;;;;;;18.48;55.74;99638.09;5132839;28;19911;-78
2023/06/08 04:22:04;;;;;;;;;;;;;;;18.55;56.97;99640.69;5131717;28;20295;-78
2023/06/08 04:24:30;;;;;;;;;;;;;;;18.53;56.00;99642.78;5137380;28;20306;-78
2023/06/08 04:26:56;;;;;;;;;;;;;;;18.63;56.48;99643.91;5136544;28;19925;-79
2023/06/08 04:29:21;;;;;;;;;;;;;;;18.72;56.80;99645.22;5132238;28;19919;-79
2023/06/08 04:31:46;;;;;;;;;;;;;;;18.73;55.74;99638.84;5132381;28;19911;-78
2023/06/08 04:34:12;;;;;;;;;;;;;;;18.79;54.52;99639.78;5132313;28;19919;-78
2023/06/08 04:36:39;;;;;;;;;;;;;;;18.75;56.47;99641.28;5132244;28;20311;-79
2023/06/08 04:39:04;;;;;;;;;;;;;;;18.81;56.01;99645.72;5132134;28;19911;-78
2023/06/08 04:41:31;;;;;;;;;;;;;;;18.83;56.49;99638.28;5132063;28;19980;-78
2023/06/08 04:44:01;;;;;;;;;;;;;;;18.88;56.24;99635.72;5132053;28;19990;-79
2023/06/08 04:46:26;;;;;;;;;;;;;;;18.98;56.30;99641.31;5130839;28;19957;-79
2023/06/08 04:48:52;;;;;;;;;;;;;;;19.08;56.09;99646.09;5132231;28;19953;-79
2023/06/08 04:51:17;;;;;;;;;;;;;;;19.17;55.89;99641.22;5132155;28;20007;-79
2023/06/08 04:53:42;;;;;;;;;;;;;;;19.23;55.46;99640.31;5130713;28;20320;-79
2023/06/08 04:56:08;;;;;;;;;;;;;;;19.25;56.16;99641.69;5132247;28;19919;-79
2023/06/08 04:58:33;;;;;;;;;;;;;;;19.28;55.71;99643.91;5132049;28;19911;-79
2023/06/08 05:00:59;;;;;;;;;;;;;;;19.33;54.80;99637.91;5133779;27;19983;-78
2023/06/08 05:03:25;;;;;;;;;;;;;;;19.40;54.86;99637.78;5135912;27;19911;-78
2023/06/08 05:05:50;;;;;;;;;;;;;;;19.45;54.03;99627.19;5135785;27;19911;-78
2023/06/08 05:08:16;;;;;;;;;;;;;;;19.41;55.38;99644.75;5134370;27;19941;-77
2023/06/08 05:10:41;;;;;;;;;;;;;;;19.46;54.80;99643.00;5134402;27;19964;-79
2023/06/08 05:13:07;;;;;;;;;;;;;;;19.51;55.42;99642.31;5134444;27;19915;-78
2023/06/08 05:15:32;;;;;;;;;;;;;;;19.47;54.02;99649.19;5135318;27;20403;-79
2023/06/08 05:17:57;;;;;;;;;;;;;;;19.48;54.03;99651.63;5135432;27;19911;-77
2023/06/08 05:20:23;;;;;;;;;;;;;;;19.49;54.58;99653.25;5135218;27;20340;-79
2023/06/08 05:22:49;;;;;;;;;;;;;;;19.53;54.48;99664.34;5133984;27;20399;-78
2023/06/08 05:25:14;;;;;;;;;;;;;;;19.62;54.12;99661.09;5135131;27;20440;-78
2023/06/08 05:27:39;;;;;;;;;;;;;;;19.66;53.52;99658.75;5134817;27;19919;-79
2023/06/08 05:30:05;;;;;;;;;;;;;;;19.69;53.97;99658.28;5135178;27;19954;-78
2023/06/08 05:32:30;;;;;;;;;;;;;;;19.75;53.98;99661.88;5135196;27;20384;-78
2023/06/08 05:34:55;;;;;;;;;;;;;;;19.78;53.27;99664.09;5107168;27;19976;-77
2023/06/08 05:37:21;;;;;;;;;;;;;;;19.73;54.21;99664.00;5094166;28;20300;-79
2023/06/08 05:39:46;;;;;;;;;;;;;;;19.73;54.39;99672.03;5094213;28;19912;-78
2023/06/08 05:42:11;;;;;;;;;;;;;;;19.72;54.48;99681.94;5094311;28;19941;-78
2023/06/08 05:44:36;;;;;;;;;;;;;;;19.76;54.77;99680.41;5117437;27;19961;-78
2023/06/08 05:47:02;;;;;;;;;;;;;;;19.83;54.31;99669.56;5114742;28;20300;-78
2023/06/08 05:49:27;;;;;;;;;;;;;;;19.86;54.27;99669.91;5114501;28;19922;-78
2023/06/08 05:51:53;;;;;;;;;;;;;;;19.85;54.92;99673.63;5112555;28;19965;-77
2023/06/08 05:54:18;;;;;;;;;;;;;;;19.81;54.20;99669.00;5114359;28;19999;-79
2023/06/08 05:56:43;;;;;;;;;;;;;;;19.75;54.50;99668.06;5120796;27;19968;-78
2023/06/08 05:59:08;;;;;;;;;;;;;;;19.70;54.38;99667.94;5116367;27;19922;-79
2023/06/08 06:01:34;;;;;;;;;;;;;;;19.65;53.76;99665.97;5113894;28;20366;-79
2023/06/08 06:03:59;;;;;;;;;;;;;;;19.63;55.44;99659.22;5122080;27;19923;-76
2023/06/08 06:06:24;;;;;;;;;;;;;;;19.67;54.64;99663.06;5112390;28;19912;-78
2023/06/08 06:08:50;;;;;;;;;;;;;;;19.75;55.09;99657.34;5112979;28;20312;-77
2023/06/08 06:11:15;;;;;;;;;;;;;;;19.83;54.34;99658.84;5112857;27;19919;-78
2023/06/08 06:13:41;;;;;;;;;;;;;;;19.79;55.19;99665.72;5114304;27;19911;-78
2023/06/08 06:16:06;;;;;;;;;;;;;;;19.84;55.15;99658.63;5114039;27;19994;-77
2023/06/08 06:18:31;;;;;;;;;;;;;;;19.87;54.89;99666.19;5119176;27;19915;-79
2023/06/08 06:20:56;;;;;;;;;;;;;;;19.93;54.77;99649.16;5116184;27;20018;-78
2023/06/08 06:23:22;;;;;;;;;;;;;;;19.96;54.45;99658.59;5110077;28;20278;-78
2023/06/08 06:25:47;;;;;;;;;;;;;;;20.06;55.10;99656.13;5111664;27;19915;-78
2023/06/08 06:28:12;;;;;;;;;;;;;;;20.06;55.56;99660.66;5111257;27;19965;-77
2023/06/08 06:30:37;;;;;;;;;;;;;;;20.07;54.53;99657.78;5107674;27;19923;-78
2023/06/08 06:33:03;;;;;;;;;;;;;;;20.20;55.35;99662.06;5093240;28;19994;-78
2023/06/08 06:35:28;;;;;;;;;;;;;;;20.41;54.72;99660.63;5111312;28;19915;-78
2023/06/08 06:37:54;;;;;;;;;;;;;;;20.49;54.10;99660.22;5120298;27;19922;-78
2023/06/08 06:40:20;;;;;;;;;;;;;;;20.56;54.56;99656.34;5114192;27;19919;-78
2023/06/08 06:42:45;;;;;;;;;;;;;;;20.55;54.15;99656.59;5125225;27;19974;-78
2023/06/08 06:45:11;;;;;;;;;;;;;;;20.54;53.73;99663.00;5132339;27;19907;-78
2023/06/08 06:47:37;;;;;;;;;;;;;;;20.68;53.23;99656.28;5115066;27;19933;-78
2023/06/08 06:50:02;;;;;;;;;;;;;;;20.70;52.59;99653.38;5111584;28;19961;-77
2023/06/08 06:52:27;;;;;;;;;;;;;;;20.78;54.30;99653.78;5116528;27;19912;-77
2023/06/08 06:54:53;;;;;;;;;;;;;;;20.83;53.45;99653.91;5111433;27;19919;-78
2023/06/08 06:57:18;;;;;;;;;;;;;;;20.78;53.49;99651.09;5105250;28;19966;-76
2023/06/08 06:59:45;;;;;;;;;;;;;;;20.75;53.46;99654.28;5114236;27;19916;-78
2023/06/08 07:02:10;;;;;;;;;;;;;;;20.68;54.04;99650.94;5133309;27;19912;-78
2023/06/08 07:04:36;;;;;;;;;;;;;;;20.70;52.79;99659.56;5120853;27;19915;-79
2023/06/08 07:07:01;;;;;;;;;;;;;;;20.69;53.28;99659.78;5113450;28;19935;-78
2023/06/08 07:09:26;;;;;;;;;;;;;;;20.68;53.77;99661.66;5117762;27;20399;-78
2023/06/08 07:11:52;;;;;;;;;;;;;;;20.79;53.43;99663.47;5110646;27;19915;-76
2023/06/08 07:14:17;;;;;;;;;;;;;;;20.89;52.57;99658.31;5115559;27;20321;-77
2023/06/08 07:16:43;;;;;;;;;;;;;;;20.97;53.51;99653.59;5114366;27;19976;-75
2023/06/08 07:19:08;;;;;;;;;;;;;;;21.10;52.21;99648.72;5113239;27;19918;-77
2023/06/08 07:21:38;;;;;;;;;;;;;;;21.21;52.52;99647.00;5114887;27;19924;-76
2023/06/08 07:24:04;;;;;;;;;;;;;;;21.29;52.17;99648.50;5125709;27;19912;-77
2023/06/08 07:26:29;;;;;;;;;;;;;;;21.43;51.86;99642.53;5110963;28;19915;-78
2023/06/08 07:28:55;;;;;;;;;;;;;;;21.43;52.28;99634.47;5106694;28;19924;-76
2023/06/08 07:31:22;;;;;;;;;;;;;;;21.48;51.63;99633.75;5108416;27;19916;-76
2023/06/08 07:33:48;;;;;;;;;;;;;;;21.50;52.71;99642.38;5113284;28;19951;-76
2023/06/08 07:36:13;;;;;;;;;;;;;;;21.56;52.79;99636.84;5130567;27;19966;-76
2023/06/08 07:38:38;;;;;;;;;;;;;;;21.67;51.21;99623.56;5132931;27;20349;-77
2023/06/08 07:41:04;;;;;;;;;;;;;;;21.64;52.08;99634.78;5131752;27;19922;-78
2023/06/08 07:43:29;;;;;;;;;;;;;;;21.66;52.19;99625.44;5121888;27;19918;-77
2023/06/08 07:45:54;;;;;;;;;;;;;;;21.74;51.81;99626.88;5101270;28;19912;-77
2023/06/08 07:48:20;;;;;;;;;;;;;;;21.80;51.98;99628.56;5109099;28;19995;-77
2023/06/08 07:50:46;;;;;;;;;;;;;;;21.89;51.44;99630.56;5091889;28;19912;-77
2023/06/08 07:53:12;;;;;;;;;;;;;;;21.89;51.33;99621.69;5091003;28;19923;-77
2023/06/08 07:55:38;;;;;;;;;;;;;;;21.94;50.78;99621.75;5115723;28;19920;-78
2023/06/08 07:58:03;;;;;;;;;;;;;;;21.98;51.11;99612.13;5132321;28;19917;-76
2023/06/08 08:00:31;;;;;;;;;;;;;;;22.06;51.17;99617.09;5113329;28;19923;-77
2023/06/08 08:02:56;;;;;;;;;;;;;;;22.15;51.05;99617.47;5111889;28;20431;-77
2023/06/08 08:05:21;;;;;;;;;;;;;;;22.13;50.91;99622.28;5110553;28;20003;-77
2023/06/08 08:07:46;;;;;;;;;;;;;;;22.25;50.22;99622.13;5111966;28;20285;-78
2023/06/08 08:10:12;;;;;;;;;;;;;;;22.24;50.40;99621.31;5109826;28;19924;-77
2023/06/08 08:12:38;;;;;;;;;;;;;;;22.33;50.54;99619.03;5123172;28;19926;-77
2023/06/08 08:15:03;;;;;;;;;;;;;;;22.43;50.17;99621.81;5132321;28;19968;-77
2023/06/08 08:17:28;;;;;;;;;;;;;;;22.52;50.52;99615.72;5132397;28;19911;-77
2023/06/08 08:19:54;;;;;;;;;;;;;;;22.59;50.78;99637.06;5127707;28;19912;-77
2023/06/08 08:22:19;;;;;;;;;;;;;;;22.66;50.13;99621.50;5110956;28;19912;-78
2023/06/08 08:24:44;;;;;;;;;;;;;;;22.78;49.52;99621.34;5096184;28;19916;-78
2023/06/08 08:27:10;;;;;;;;;;;;;;;22.91;49.44;99617.44;5100665;28;20312;-77
2023/06/08 08:29:36;;;;;;;;;;;;;;;22.85;49.37;99611.22;5118223;28;20007;-77
2023/06/08 08:32:01;;;;;;;;;;;;;;;22.93;49.36;99620.69;5115251;28;19923;-77
2023/06/08 08:34:26;;;;;;;;;;;;;;;23.05;48.80;99616.78;5099700;27;19953;-78
2023/06/08 08:36:51;;;;;;;;;;;;;;;23.18;48.59;99610.13;5102486;28;19972;-78
2023/06/08 08:39:17;;;;;;;;;;;;;;;23.28;48.51;99607.50;5120752;27;19920;-79
2023/06/08 08:41:43;;;;;;;;;;;;;;;23.42;48.13;99605.16;5124121;27;19950;-77
2023/06/08 08:44:08;;;;;;;;;;;;;;;23.51;47.99;99605.50;5107585;27;19927;-78
2023/06/08 08:46:34;;;;;;;;;;;;;;;23.69;47.93;99615.84;5107224;27;19919;-78
2023/06/08 08:49:04;;;;;;;;;;;;;;;23.84;47.52;99605.19;5113742;28;20400;-79
2023/06/08 08:51:32;;;;;;;;;;;;;;;23.96;47.39;99605.75;5115337;28;19933;-76
2023/06/08 08:54:00;;;;;;;;;;;;;;;24.03;47.01;99603.63;5115220;28;20285;-78
2023/06/08 08:56:25;;;;;;;;;;;;;;;23.99;46.79;99609.81;5115427;28;20381;-77
2023/06/08 08:58:51;;;;;;;;;;;;;;;23.87;46.97;99596.56;5118283;27;19916;-76
2023/06/08 09:01:20;;;;;;;;;;;;;;;23.79;47.09;99588.97;5133121;27;19915;-78
2023/06/08 09:03:46;;;;;;;;;;;;;;;23.70;47.23;99585.94;5114549;28;19955;-78
2023/06/08 09:06:11;;;;;;;;;;;;;;;23.70;46.55;99591.34;5114965;28;19969;-78
2023/06/08 09:08:36;;;;;;;;;;;;;;;23.82;46.33;99591.16;5113554;28;19919;-78
2023/06/08 09:11:06;;;;;;;;;;;;;;;24.04;46.74;99590.94;5113426;27;19915;-78
2023/06/08 09:13:32;;;;;;;;;;;;;;;24.28;45.95;99583.22;5113527;28;19916;-76
2023/06/08 09:16:20;;;;;;;;;;;;;;;24.38;46.17;99581.34;5101660;28;19915;-78
2023/06/08 09:18:46;;;;;;;;;;;;;;;24.66;45.69;99576.53;5114792;28;20373;-77
2023/06/08 09:21:27;;;;;;;;;;;;;;;24.89;45.05;99569.78;5107985;27;19916;-76
2023/06/08 09:24:03;;;;;;;;;;;;;;;25.02;43.63;99569.28;5113375;27;19915;-77
2023/06/08 09:26:32;;;;;;;;;;;;;;;25.03;43.39;99571.69;5111991;28;19944;-77
2023/06/08 09:29:00;;;;;;;;;;;;;;;25.14;43.98;99577.09;5100299;28;20382;-77
2023/06/08 09:31:29;;;;;;;;;;;;;;;25.35;43.20;99570.59;5115848;27;19920;-78
2023/06/08 09:34:05;;;;;;;;;;;;;;;25.62;42.70;99562.13;5111833;28;20383;-78
2023/06/08 09:36:30;;;;;;;;;;;;;;;25.97;43.05;99572.81;5114708;28;20002;-77
2023/06/08 09:38:56;;;;;;;;;;;;;;;26.36;42.85;99566.69;5114409;28;19962;-77
2023/06/08 09:41:21;;;;;;;;;;;;;;;26.68;42.43;99559.94;5114774;27;19965;-78
2023/06/08 09:43:48;;;;;;;;;;;;;;;26.98;41.15;99565.16;5119359;27;19977;-77
2023/06/08 09:46:16;;;;;;;;;;;;;;;27.10;39.66;99557.44;5134291;27;19911;-78
2023/06/08 09:48:54;;;;;;;;;;;;;;;27.25;39.74;99561.91;5135163;27;19918;-77
2023/06/08 09:51:21;;;;;;;;;;;;;;;27.33;39.26;99557.75;5126915;27;19923;-79
2023/06/08 09:53:47;;;;;;;;;;;;;;;27.50;39.52;99548.09;5099286;28;19916;-76
2023/06/08 09:56:15;;;;;;;;;;;;;;;27.57;38.01;99545.03;5092803;28;19973;-78
2023/06/08 09:58:41;;;;;;;;;;;;;;;27.59;39.37;99539.31;5092106;28;19912;-77
2023/06/08 10:01:08;;;;;;;;;;;;;;;27.43;39.07;99542.19;5093293;27;20414;-78
2023/06/08 10:03:47;;;;;;;;;;;;;;;27.61;38.89;99532.53;5093605;28;19916;-77
2023/06/08 10:06:12;;;;;;;;;;;;;;;27.80;39.29;99541.50;5104485;27;20002;-77
2023/06/08 10:08:38;;;;;;;;;;;;;;;27.87;37.35;99527.56;5113521;28;20373;-77
2023/06/08 10:11:04;;;;;;;;;;;;;;;27.89;38.81;99532.72;5112415;28;20001;-78
2023/06/08 10:13:29;;;;;;;;;;;;;;;28.10;38.86;99528.59;5114463;27;19923;-77
2023/06/08 10:15:55;;;;;;;;;;;;;;;28.32;38.57;99528.06;5101660;28;19920;-77
2023/06/08 10:18:21;;;;;;;;;;;;;;;28.57;38.32;99532.28;5093925;27;19912;-77
2023/06/08 10:20:46;;;;;;;;;;;;;;;28.67;37.98;99526.69;5111987;27;20406;-76
2023/06/08 10:23:12;;;;;;;;;;;;;;;28.83;37.04;99506.28;5129247;27;19915;-75
2023/06/08 10:25:38;;;;;;;;;;;;;;;29.00;36.52;99506.56;5138170;27;19911;-75
2023/06/08 10:28:09;;;;;;;;;;;;;;;29.21;37.70;99500.75;5115056;28;20307;-76
2023/06/08 10:30:41;;;;;;;;;;;;;;;29.30;37.69;99491.56;5111608;28;19916;-76
2023/06/08 10:33:08;;;;;;;;;;;;;;;29.33;34.02;99487.44;5110111;27;20386;-76
2023/06/08 10:35:33;;;;;;;;;;;;;;;29.02;34.67;99498.91;5113201;28;19916;-76
2023/06/08 10:38:07;;;;;;;;;;;;;;;29.12;36.82;99492.47;5111913;28;20003;-77
2023/06/08 10:40:40;;;;;;;;;;;;;;;29.25;36.80;99488.16;5113313;28;19960;-76
2023/06/08 10:43:07;;;;;;;;;;;;;;;29.28;36.60;99482.91;5113242;28;19998;-75
2023/06/08 10:45:35;;;;;;;;;;;;;;;29.42;35.06;99472.03;5113155;28;19958;-77
2023/06/08 10:48:01;;;;;;;;;;;;;;;29.60;34.81;99470.31;5113815;28;19923;-77
2023/06/08 10:50:30;;;;;;;;;;;;;;;29.78;34.35;99463.94;5130583;27;19915;-75
2023/06/08 10:52:58;;;;;;;;;;;;;;;29.92;35.42;99461.19;5114567;27;19916;-78
2023/06/08 10:55:25;;;;;;;;;;;;;;;29.72;33.87;99457.78;5114835;27;19919;-76
2023/06/08 10:57:52;;;;;;;;;;;;;;;29.90;34.25;99457.97;5111767;28;20404;-78
2023/06/08 11:00:30;;;;;;;;;;;;;;;30.08;32.36;99458.94;5119106;27;19916;-78
2023/06/08 11:03:00;;;;;;;;;;;;;;;30.23;31.56;99453.13;5120525;27;19992;-76
2023/06/08 11:05:28;;;;;;;;;;;;;;;30.25;32.22;99451.69;5110877;28;19916;-78
2023/06/08 11:07:53;;;;;;;;;;;;;;;30.44;32.14;99456.13;5111436;27;19981;-76
2023/06/08 11:10:25;;;;;;;;;;;;;;;30.72;33.50;99441.28;5109341;27;19915;-78
2023/06/08 11:12:50;;;;;;;;;;;;;;;30.79;32.74;99444.34;5123504;27;19915;-78
2023/06/08 11:15:17;;;;;;;;;;;;;;;30.91;32.79;99436.38;5119328;27;19926;-78
2023/06/08 11:17:58;;;;;;;;;;;;;;;30.80;32.55;99429.59;5104298;27;20458;-78
2023/06/08 11:20:24;;;;;;;;;;;;;;;30.86;31.88;99428.34;5092291;28;20381;-77
2023/06/08 11:22:49;;;;;;;;;;;;;;;30.84;31.81;99429.78;5095890;27;19969;-77
2023/06/08 11:25:17;;;;;;;;;;;;;;;30.71;31.71;99425.22;5103951;28;20395;-77
2023/06/08 11:27:43;;;;;;;;;;;;;;;30.66;32.48;99423.44;5108812;27;20029;-77
2023/06/08 11:30:08;;;;;;;;;;;;;;;30.79;32.46;99432.66;5099206;27;20007;-77
2023/06/08 11:32:35;;;;;;;;;;;;;;;30.89;31.71;99422.25;5100975;27;19916;-77
2023/06/08 11:35:04;;;;;;;;;;;;;;;31.20;31.14;99432.34;5092804;28;19922;-76
2023/06/08 11:37:33;;;;;;;;;;;;;;;31.31;31.44;99419.22;5132592;27;20464;-78
2023/06/08 11:39:58;;;;;;;;;;;;;;;31.65;31.09;99426.66;5125544;27;19915;-78
2023/06/08 11:42:24;;;;;;;;;;;;;;;31.86;31.08;99427.66;5111798;28;19915;-77
2023/06/08 11:44:49;;;;;;;;;;;;;;;32.04;30.26;99412.88;5121409;27;19968;-77
2023/06/08 11:47:16;;;;;;;;;;;;;;;32.00;29.71;99420.13;5112389;28;19923;-76
2023/06/08 11:49:54;;;;;;;;;;;;;;;31.89;30.84;99416.88;5112422;28;19912;-77
2023/06/08 11:52:26;;;;;;;;;;;;;;;32.01;30.92;99421.72;5127011;28;19915;-77
2023/06/08 11:54:55;;;;;;;;;;;;;;;32.07;30.09;99419.63;5109073;28;20424;-76
2023/06/08 11:57:21;;;;;;;;;;;;;;;32.25;29.38;99418.50;5109884;28;20018;-77
2023/06/08 11:59:47;;;;;;;;;;;;;;;32.16;30.33;99415.75;5115482;28;19974;-76
2023/06/08 12:02:12;;;;;;;;;;;;;;;32.26;28.24;99411.91;5111728;28;19991;-76
2023/06/08 12:04:56;;;;;;;;;;;;;;;32.54;28.21;99413.09;5111828;28;19922;-76
2023/06/08 12:07:21;;;;;;;;;;;;;;;32.75;27.51;99410.47;5112615;28;20422;-77
2023/06/08 12:09:47;;;;;;;;;;;;;;;32.99;26.36;99415.38;5124585;27;19918;-76
2023/06/08 12:12:12;;;;;;;;;;;;;;;33.05;27.32;99410.53;5119997;27;19915;-78
2023/06/08 12:14:45;;;;;;;;;;;;;;;33.10;27.53;99405.66;5111672;27;20348;-78
2023/06/08 12:17:14;;;;;;;;;;;;;;;33.11;26.37;99404.53;5115226;27;19923;-77
2023/06/08 12:19:47;;;;;;;;;;;;;;;33.22;27.09;99401.41;5121951;27;20027;-75
2023/06/08 12:22:15;;;;;;;;;;;;;;;32.77;28.67;99399.22;5119476;27;19922;-76
2023/06/08 12:24:40;;;;;;;;;;;;;;;32.71;28.88;99387.66;5109610;28;20362;-78
2023/06/08 12:27:09;;;;;;;;;;;;;;;32.83;27.75;99385.06;5116432;27;19920;-76
2023/06/08 12:29:34;;;;;;;;;;;;;;;32.95;27.93;99389.03;5114622;27;19935;-78
2023/06/08 12:32:00;;;;;;;;;;;;;;;33.10;27.42;99378.31;5116515;27;20324;-77
2023/06/08 12:34:28;;;;;;;;;;;;;;;33.23;28.17;99381.94;5113094;27;19947;-76
2023/06/08 12:36:54;;;;;;;;;;;;;;;33.37;25.54;99377.03;5104865;27;19916;-77
2023/06/08 12:39:19;;;;;;;;;;;;;;;33.40;25.65;99368.16;5119302;27;20015;-77
2023/06/08 12:41:45;;;;;;;;;;;;;;;33.44;27.70;99371.03;5115276;27;19919;-77
2023/06/08 12:44:10;;;;;;;;;;;;;;;33.47;28.09;99365.72;5129304;27;19915;-77
2023/06/08 12:46:35;;;;;;;;;;;;;;;33.22;28.01;99366.66;5118221;27;19954;-77